createdAt,value
2023-02-16T00:01:59.017Z,101206.72
2023-02-16T00:04:31.189Z,101204.94
2023-02-16T00:06:59.012Z,101195.44
2023-02-16T00:09:26.362Z,101196.97
2023-02-16T00:12:12.671Z,101196.31
2023-02-16T00:14:40.682Z,101182.44
2023-02-16T00:17:11.454Z,101183.19
2023-02-16T00:19:42.273Z,101186.72
2023-02-16T00:22:11.404Z,101184.91
2023-02-16T00:24:38.601Z,101182.44
2023-02-16T00:27:14.316Z,101180.69
2023-02-16T00:29:44.677Z,101179.09
2023-02-16T00:32:14.010Z,101177.50
2023-02-16T00:34:42.097Z,101167.22
2023-02-16T00:37:13.674Z,101168.03
2023-02-16T00:39:43.457Z,101162.09
2023-02-16T00:42:22.561Z,101157.91
2023-02-16T00:44:56.157Z,101166.34
2023-02-16T00:47:37.636Z,101163.69
2023-02-16T00:50:22.944Z,101165.41
2023-02-16T00:52:50.988Z,101170.50
2023-02-16T00:55:20.430Z,101167.19
2023-02-16T00:58:01.503Z,101162.81
2023-02-16T01:00:46.944Z,101158.44
2023-02-16T01:03:27.177Z,101149.72
2023-02-16T01:06:14.966Z,101151.47
2023-02-16T01:09:01.885Z,101142.75
2023-02-16T01:11:31.918Z,101146.81
2023-02-16T01:13:59.391Z,101132.28
2023-02-16T01:16:39.567Z,101138.25
2023-02-16T01:19:06.906Z,101120.22
2023-02-16T01:21:34.332Z,101130.56
2023-02-16T01:24:02.126Z,101135.66
2023-02-16T01:26:30.641Z,101133.84
2023-02-16T01:28:57.957Z,101121.28
2023-02-16T01:31:25.308Z,101126.47
2023-02-16T01:33:52.892Z,101124.00
2023-02-16T01:36:36.776Z,101110.47
2023-02-16T01:39:08.458Z,101106.97
2023-02-16T01:41:54.938Z,101101.88
2023-02-16T01:44:27.459Z,101102.03
2023-02-16T01:47:07.665Z,101096.88
2023-02-16T01:49:38.341Z,101091.72
2023-02-16T01:52:11.879Z,101088.38
2023-02-16T01:54:51.411Z,101084.88
2023-02-16T01:57:43.710Z,101081.66
2023-02-16T02:00:18.375Z,101076.56
2023-02-16T02:02:55.177Z,101082.63
2023-02-16T02:05:36.188Z,101076.56
2023-02-16T02:08:11.272Z,101081.78
2023-02-16T02:10:48.460Z,101072.50
2023-02-16T02:13:22.868Z,101052.47
2023-02-16T02:15:50.432Z,101070.75
2023-02-16T02:18:17.878Z,101070.75
2023-02-16T02:21:34.718Z,101057.84
2023-02-16T02:24:20.550Z,101059.72
2023-02-16T02:27:20.355Z,101062.34
2023-02-16T02:30:23.594Z,101064.94
2023-02-16T02:33:39.424Z,101063.19
2023-02-16T02:36:28.611Z,101054.63
2023-02-16T02:39:11.138Z,101052.16
2023-02-16T02:42:13.171Z,101041.06
2023-02-16T02:45:12.812Z,101041.06
2023-02-16T02:47:47.398Z,101037.75
2023-02-16T02:50:38.461Z,101035.22
2023-02-16T02:53:15.745Z,101030.91
2023-02-16T02:56:07.988Z,101028.34
2023-02-16T02:58:57.330Z,101031.78
2023-02-16T03:01:25.922Z,101032.53
2023-02-16T03:03:57.243Z,101037.75
2023-02-16T03:06:28.798Z,101042.84
2023-02-16T03:09:16.303Z,101045.44
2023-02-16T03:12:04.409Z,101037.50
2023-02-16T03:14:47.320Z,101040.09
2023-02-16T03:17:36.774Z,101044.44
2023-02-16T03:20:27.844Z,101041.81
2023-02-16T03:23:15.046Z,101037.50
2023-02-16T03:26:01.326Z,101035.72
2023-02-16T03:28:50.546Z,101032.41
2023-02-16T03:31:24.500Z,101038.41
2023-02-16T03:33:55.103Z,101029.78
2023-02-16T03:36:28.244Z,101033.13
2023-02-16T03:38:56.905Z,101040.94
2023-02-16T03:41:26.118Z,101032.41
2023-02-16T03:43:53.543Z,101041.06
2023-02-16T03:46:20.932Z,101029.91
2023-02-16T03:48:48.253Z,101023.94
2023-02-16T03:51:15.505Z,101030.75
2023-02-16T03:53:42.673Z,101023.81
2023-02-16T03:56:10.047Z,101029.97
2023-02-16T03:58:37.482Z,101020.59
2023-02-16T04:01:05.211Z,101018.00
2023-02-16T04:03:33.559Z,101005.78
2023-02-16T04:06:01.211Z,101029.03
2023-02-16T04:08:28.827Z,101025.53
2023-02-16T04:10:57.699Z,101024.56
2023-02-16T04:13:25.333Z,101022.06
2023-02-16T04:15:52.763Z,101030.50
2023-02-16T04:18:20.053Z,101025.41
2023-02-16T04:20:47.373Z,101022.75
2023-02-16T04:23:14.614Z,101035.59
2023-02-16T04:25:41.921Z,101031.97
2023-02-16T04:28:09.330Z,101035.47
2023-02-16T04:30:36.738Z,101040.56
2023-02-16T04:33:04.063Z,101042.16
2023-02-16T04:35:31.302Z,101042.03
2023-02-16T04:37:58.577Z,101038.53
2023-02-16T04:40:25.830Z,101017.91
2023-02-16T04:42:53.092Z,101021.41
2023-02-16T04:45:20.376Z,101020.59
2023-02-16T04:47:47.686Z,101020.66
2023-02-16T04:50:15.117Z,101011.13
2023-02-16T04:52:42.592Z,101019.00
2023-02-16T04:55:11.241Z,101016.44
2023-02-16T04:57:39.806Z,100971.44
2023-02-16T05:00:10.348Z,101016.44
2023-02-16T05:02:37.753Z,101014.69
2023-02-16T05:05:05.293Z,100998.28
2023-02-16T05:07:32.629Z,100997.56
2023-02-16T05:10:00.033Z,100992.34
2023-02-16T05:12:45.918Z,101002.78
2023-02-16T05:15:13.249Z,100995.97
2023-02-16T05:17:40.632Z,100999.50
2023-02-16T05:20:08.806Z,100991.88
2023-02-16T05:22:39.346Z,100995.22
2023-02-16T05:25:07.996Z,100987.50
2023-02-16T05:27:35.714Z,100970.91
2023-02-16T05:30:03.204Z,100976.13
2023-02-16T05:32:30.528Z,100984.03
2023-02-16T05:34:57.896Z,100985.66
2023-02-16T05:37:25.248Z,100985.66
2023-02-16T05:39:53.181Z,100991.66
2023-02-16T05:42:20.470Z,100986.56
2023-02-16T05:44:48.541Z,100988.25
2023-02-16T05:47:15.853Z,100986.56
2023-02-16T05:49:43.807Z,100987.38
2023-02-16T05:52:11.178Z,100988.25
2023-02-16T05:54:38.538Z,100984.03
2023-02-16T05:57:05.782Z,100984.09
2023-02-16T05:59:33.064Z,100994.19
2023-02-16T06:02:00.499Z,100992.47
2023-02-16T06:04:28.823Z,100992.34
2023-02-16T06:06:56.120Z,100992.34
2023-02-16T06:09:23.437Z,100976.81
2023-02-16T06:11:50.746Z,100995.81
2023-02-16T06:14:20.161Z,101002.66
2023-02-16T06:16:49.959Z,100997.56
2023-02-16T06:19:18.568Z,100995.81
2023-02-16T06:21:46.860Z,101000.91
2023-02-16T06:24:15.750Z,101007.72
2023-02-16T06:26:43.396Z,100994.66
2023-02-16T06:29:11.912Z,101006.88
2023-02-16T06:31:39.943Z,101008.56
2023-02-16T06:34:08.277Z,101007.72
2023-02-16T06:36:36.345Z,101010.28
2023-02-16T06:39:04.907Z,101009.34
2023-02-16T06:41:35.928Z,101011.88
2023-02-16T06:44:07.133Z,101012.81
2023-02-16T06:46:35.953Z,101014.56
2023-02-16T06:49:03.979Z,101006.19
2023-02-16T06:51:32.689Z,100996.09
2023-02-16T06:54:00.694Z,100995.22
2023-02-16T06:56:28.534Z,100992.72
2023-02-16T06:58:56.626Z,100989.53
2023-02-16T07:01:26.367Z,100979.47
2023-02-16T07:03:55.792Z,100977.88
2023-02-16T07:06:27.114Z,100971.97
2023-02-16T07:08:55.246Z,100967.03
2023-02-16T07:11:23.652Z,100956.06
2023-02-16T07:13:51.910Z,100956.19
2023-02-16T07:16:20.044Z,100963.13
2023-02-16T07:18:48.101Z,100950.47
2023-02-16T07:21:17.030Z,100953.16
2023-02-16T07:23:45.029Z,100955.09
2023-02-16T07:26:13.670Z,100943.16
2023-02-16T07:28:41.680Z,100955.44
2023-02-16T07:31:15.389Z,100939.31
2023-02-16T07:33:44.565Z,100951.50
2023-02-16T07:36:13.842Z,100954.22
2023-02-16T07:38:42.473Z,100961.19
2023-02-16T07:41:11.199Z,100952.63
2023-02-16T07:43:39.911Z,100976.84
2023-02-16T07:46:07.903Z,100975.34
2023-02-16T07:48:35.821Z,100972.03
2023-02-16T07:51:04.409Z,100953.25
2023-02-16T07:53:32.825Z,100967.16
2023-02-16T07:56:00.909Z,100974.09
2023-02-16T07:58:28.846Z,100975.13
2023-02-16T08:01:18.168Z,100960.69
2023-02-16T08:03:46.299Z,100967.53
2023-02-16T08:06:14.988Z,100966.09
2023-02-16T08:08:43.722Z,100976.47
2023-02-16T08:11:14.780Z,100978.34
2023-02-16T08:13:42.884Z,100962.81
2023-02-16T08:16:18.548Z,100969.97
2023-02-16T08:18:46.922Z,100943.97
2023-02-16T08:21:20.973Z,100961.56
2023-02-16T08:23:56.529Z,100977.19
2023-02-16T08:26:26.896Z,100979.19
2023-02-16T08:28:56.944Z,100985.34
2023-02-16T08:31:28.910Z,100976.19
2023-02-16T08:33:59.705Z,100981.72
2023-02-16T08:36:33.492Z,100978.72
2023-02-16T08:39:17.443Z,100978.94
2023-02-16T08:41:47.767Z,100982.66
2023-02-16T08:44:17.414Z,100972.56
2023-02-16T08:46:47.213Z,100978.00
2023-02-16T08:49:18.094Z,100983.31
2023-02-16T08:51:48.652Z,100984.31
2023-02-16T08:54:20.729Z,100987.03
2023-02-16T08:56:50.190Z,100982.97
2023-02-16T08:59:20.241Z,100977.13
2023-02-16T09:01:48.191Z,100977.28
2023-02-16T09:04:18.144Z,100975.84
2023-02-16T09:06:46.689Z,100974.31
2023-02-16T09:09:15.068Z,100978.91
2023-02-16T09:11:43.229Z,100931.41
2023-02-16T09:14:11.481Z,100986.28
2023-02-16T09:16:45.960Z,100978.63
2023-02-16T09:19:17.365Z,100988.13
2023-02-16T09:21:47.440Z,100990.13
2023-02-16T09:24:16.556Z,100991.09
2023-02-16T09:26:45.241Z,100995.50
2023-02-16T09:29:14.570Z,100991.50
2023-02-16T09:31:44.817Z,100989.75
2023-02-16T09:34:22.395Z,100978.75
2023-02-16T09:36:51.416Z,100991.19
2023-02-16T09:39:19.770Z,100992.34
2023-02-16T09:41:56.278Z,100990.84
2023-02-16T09:44:38.538Z,100987.56
2023-02-16T09:47:15.016Z,100986.84
2023-02-16T09:49:46.805Z,100982.75
2023-02-16T09:52:20.568Z,100972.44
2023-02-16T09:54:58.190Z,100979.28
2023-02-16T09:57:57.590Z,100990.53
2023-02-16T10:00:34.189Z,100993.34
2023-02-16T10:03:14.294Z,100980.75
2023-02-16T10:06:02.137Z,100973.97
2023-02-16T10:08:32.891Z,100976.63
2023-02-16T10:11:30.732Z,100975.94
2023-02-16T10:14:21.991Z,100974.34
2023-02-16T10:17:04.880Z,100978.81
2023-02-16T10:19:44.840Z,100978.09
2023-02-16T10:22:18.224Z,100979.09
2023-02-16T10:25:01.609Z,100975.78
2023-02-16T10:27:38.389Z,100969.09
2023-02-16T10:30:18.914Z,100963.97
2023-02-16T10:33:06.932Z,100959.84
2023-02-16T10:35:58.033Z,100957.38
2023-02-16T10:38:32.944Z,100955.81
2023-02-16T10:41:31.944Z,100957.53
2023-02-16T10:44:21.045Z,100955.81
2023-02-16T10:46:56.276Z,100952.44
2023-02-16T10:49:27.315Z,100951.63
2023-02-16T10:51:57.686Z,100951.63
2023-02-16T10:54:34.126Z,100950.69
2023-02-16T10:57:08.367Z,100946.44
2023-02-16T10:59:39.261Z,100950.88
2023-02-16T11:02:40.398Z,100940.75
2023-02-16T11:05:26.957Z,100935.75
2023-02-16T11:08:02.143Z,100932.44
2023-02-16T11:10:52.827Z,100932.44
2023-02-16T11:13:20.969Z,100930.88
2023-02-16T11:15:55.086Z,100930.94
2023-02-16T11:18:34.597Z,100926.00
2023-02-16T11:21:03.813Z,100920.75
2023-02-16T11:23:34.282Z,100922.59
2023-02-16T11:26:04.477Z,100920.88
2023-02-16T11:28:40.051Z,100922.69
2023-02-16T11:31:19.255Z,100914.25
2023-02-16T11:34:06.151Z,100921.09
2023-02-16T11:36:34.645Z,100924.66
2023-02-16T11:39:14.885Z,100923.88
2023-02-16T11:41:49.841Z,100919.59
2023-02-16T11:44:42.297Z,100935.81
2023-02-16T11:47:25.093Z,100928.94
2023-02-16T11:50:29.051Z,100937.72
2023-02-16T11:53:23.207Z,100933.59
2023-02-16T11:55:51.730Z,100936.25
2023-02-16T11:58:25.713Z,100926.91
2023-02-16T12:01:06.654Z,100925.44
2023-02-16T12:04:10.955Z,100921.34
2023-02-16T12:07:00.040Z,100922.34
2023-02-16T12:09:54.182Z,100913.03
2023-02-16T12:12:52.491Z,100905.50
2023-02-16T12:15:36.907Z,100903.97
2023-02-16T12:18:19.866Z,100904.16
2023-02-16T12:20:53.662Z,100900.00
2023-02-16T12:23:33.578Z,100900.09
2023-02-16T12:26:32.102Z,100885.66
2023-02-16T12:29:21.328Z,100882.31
2023-02-16T12:32:14.741Z,100883.97
2023-02-16T12:35:00.974Z,100875.47
2023-02-16T12:37:44.297Z,100873.81
2023-02-16T12:40:31.357Z,100867.84
2023-02-16T12:43:06.488Z,100860.25
2023-02-16T12:45:40.974Z,100863.78
2023-02-16T12:48:11.517Z,100866.44
2023-02-16T12:50:42.687Z,100862.28
2023-02-16T12:53:28.078Z,100852.06
2023-02-16T12:56:08.748Z,100861.53
2023-02-16T12:58:44.287Z,100864.06
2023-02-16T13:01:24.369Z,100855.53
2023-02-16T13:04:19.150Z,100842.75
2023-02-16T13:07:07.100Z,100848.91
2023-02-16T13:09:51.597Z,100831.84
2023-02-16T13:12:32.214Z,100838.94
2023-02-16T13:15:06.295Z,100839.03
2023-02-16T13:17:40.536Z,100837.38
2023-02-16T13:20:20.656Z,100843.41
2023-02-16T13:23:07.077Z,100842.56
2023-02-16T13:26:06.115Z,100840.06
2023-02-16T13:28:40.468Z,100834.16
2023-02-16T13:31:47.924Z,100829.13
2023-02-16T13:34:24.896Z,100820.56
2023-02-16T13:37:15.255Z,100824.94
2023-02-16T13:40:11.159Z,100821.50
2023-02-16T13:42:51.519Z,100820.78
2023-02-16T13:45:21.484Z,100825.88
2023-02-16T13:47:49.987Z,100823.34
2023-02-16T13:50:24.304Z,100830.19
2023-02-16T13:52:54.034Z,100833.66
2023-02-16T13:55:42.214Z,100828.53
2023-02-16T13:58:16.752Z,100823.38
2023-02-16T14:00:49.624Z,100836.25
2023-02-16T14:03:18.026Z,100825.09
2023-02-16T14:05:48.865Z,100821.59
2023-02-16T14:08:21.354Z,100824.19
2023-02-16T14:10:55.825Z,100821.63
2023-02-16T14:13:41.945Z,100827.63
2023-02-16T14:16:18.848Z,100827.63
2023-02-16T14:18:56.478Z,100823.38
2023-02-16T14:21:34.148Z,100834.47
2023-02-16T14:24:03.847Z,100837.00
2023-02-16T14:26:32.476Z,100817.22
2023-02-16T14:29:19.825Z,100829.22
2023-02-16T14:31:58.238Z,100824.06
2023-02-16T14:34:36.401Z,100822.34
2023-02-16T14:37:15.375Z,100822.28
2023-02-16T14:40:07.039Z,100824.84
2023-02-16T14:42:36.906Z,100814.53
2023-02-16T14:45:20.033Z,100811.06
2023-02-16T14:48:17.039Z,100804.09
2023-02-16T14:51:15.566Z,100812.66
2023-02-16T14:54:11.840Z,100804.88
2023-02-16T14:56:43.429Z,100808.25
2023-02-16T14:59:40.335Z,100800.47
2023-02-16T15:02:31.611Z,100806.44
2023-02-16T15:05:14.427Z,100809.00
2023-02-16T15:07:43.533Z,100809.84
2023-02-16T15:10:15.193Z,100802.94
2023-02-16T15:12:44.623Z,100801.19
2023-02-16T15:15:20.003Z,100790.84
2023-02-16T15:17:49.314Z,100792.53
2023-02-16T15:20:29.627Z,100792.38
2023-02-16T15:23:00.093Z,100797.50
2023-02-16T15:25:36.163Z,100794.88
2023-02-16T15:28:19.208Z,100784.41
2023-02-16T15:30:59.371Z,100793.81
2023-02-16T15:33:33.969Z,100779.97
2023-02-16T15:36:04.967Z,100784.19
2023-02-16T15:38:35.908Z,100791.84
2023-02-16T15:41:14.226Z,100790.03
2023-02-16T15:43:50.264Z,100783.09
2023-02-16T15:46:48.631Z,100784.69
2023-02-16T15:49:30.670Z,100791.44
2023-02-16T15:51:58.236Z,100785.34
2023-02-16T15:54:31.033Z,100782.72
2023-02-16T15:57:04.430Z,100780.91
2023-02-16T15:59:45.576Z,100784.22
2023-02-16T16:02:33.655Z,100789.22
2023-02-16T16:05:03.806Z,100784.88
2023-02-16T16:07:36.091Z,100789.88
2023-02-16T16:10:21.809Z,100778.63
2023-02-16T16:12:51.466Z,100780.22
2023-02-16T16:15:25.350Z,100785.28
2023-02-16T16:17:55.061Z,100785.28
2023-02-16T16:20:36.218Z,100795.50
2023-02-16T16:23:15.656Z,100790.28
2023-02-16T16:25:46.914Z,100798.00
2023-02-16T16:28:36.822Z,100798.81
2023-02-16T16:31:10.198Z,100798.81
2023-02-16T16:33:53.891Z,100800.47
2023-02-16T16:36:28.352Z,100800.47
2023-02-16T16:39:19.220Z,100804.72
2023-02-16T16:42:07.255Z,100802.16
2023-02-16T16:44:40.504Z,100764.94
2023-02-16T16:47:14.123Z,100802.88
2023-02-16T16:49:51.952Z,100791.72
2023-02-16T16:52:43.409Z,100790.00
2023-02-16T16:55:25.148Z,100784.81
2023-02-16T16:58:05.072Z,100785.66
2023-02-16T17:00:38.621Z,100786.47
2023-02-16T17:03:08.311Z,100789.88
2023-02-16T17:05:38.557Z,100786.34
2023-02-16T17:08:06.523Z,100793.25
2023-02-16T17:10:35.332Z,100789.81
2023-02-16T17:13:03.439Z,100788.84
2023-02-16T17:15:46.004Z,100787.19
2023-02-16T17:18:18.733Z,100789.66
2023-02-16T17:20:46.894Z,100787.22
2023-02-16T17:23:16.733Z,100787.19
2023-02-16T17:25:44.619Z,100789.75
2023-02-16T17:28:13.142Z,100784.63
2023-02-16T17:30:41.108Z,100777.63
2023-02-16T17:33:10.014Z,100789.66
2023-02-16T17:35:40.659Z,100791.34
2023-02-16T17:38:14.362Z,100794.75
2023-02-16T17:40:44.151Z,100790.47
2023-02-16T17:43:13.849Z,100783.59
2023-02-16T17:45:41.992Z,100791.28
2023-02-16T17:48:33.493Z,100783.47
2023-02-16T17:51:00.806Z,100790.31
2023-02-16T17:53:29.142Z,100780.84
2023-02-16T17:55:58.291Z,100785.91
2023-02-16T17:58:26.341Z,100792.69
2023-02-16T18:00:54.275Z,100788.41
2023-02-16T18:03:23.153Z,100789.25
2023-02-16T18:05:51.202Z,100785.78
2023-02-16T18:08:18.846Z,100787.44
2023-02-16T18:11:02.313Z,100793.34
2023-02-16T18:13:30.271Z,100789.09
2023-02-16T18:15:59.739Z,100782.31
2023-02-16T18:18:27.138Z,100789.97
2023-02-16T18:20:54.502Z,100798.47
2023-02-16T18:23:21.965Z,100799.31
2023-02-16T18:25:49.501Z,100795.00
2023-02-16T18:28:19.180Z,100797.69
2023-02-16T18:30:50.872Z,100800.22
2023-02-16T18:33:21.367Z,100795.94
2023-02-16T18:35:51.287Z,100801.06
2023-02-16T18:38:21.871Z,100784.75
2023-02-16T18:40:50.540Z,100784.06
2023-02-16T18:43:18.257Z,100789.19
2023-02-16T18:45:45.763Z,100785.72
2023-02-16T18:48:13.951Z,100783.97
2023-02-16T18:50:41.585Z,100795.94
2023-02-16T18:53:09.076Z,100787.34
2023-02-16T18:55:36.617Z,100792.47
2023-02-16T18:58:08.066Z,100783.97
2023-02-16T19:00:37.113Z,100776.31
2023-02-16T19:03:05.488Z,100770.34
2023-02-16T19:05:33.502Z,100784.88
2023-02-16T19:08:01.348Z,100780.59
2023-02-16T19:10:28.883Z,100774.59
2023-02-16T19:12:56.152Z,100778.84
2023-02-16T19:15:23.691Z,100782.25
2023-02-16T19:17:51.365Z,100771.06
2023-02-16T19:20:18.923Z,100774.50
2023-02-16T19:22:47.344Z,100766.88
2023-02-16T19:25:15.721Z,100774.56
2023-02-16T19:27:43.970Z,100775.41
2023-02-16T19:30:12.101Z,100772.00
2023-02-16T19:32:43.075Z,100777.13
2023-02-16T19:35:11.541Z,100767.72
2023-02-16T19:37:39.638Z,100766.88
2023-02-16T19:40:09.581Z,100765.16
2023-02-16T19:42:37.846Z,100766.81
2023-02-16T19:45:05.815Z,100776.19
2023-02-16T19:47:33.368Z,100768.44
2023-02-16T19:50:00.916Z,100768.44
2023-02-16T19:52:28.400Z,100768.44
2023-02-16T19:54:55.722Z,100764.97
2023-02-16T19:57:23.213Z,100759.84
2023-02-16T19:59:50.513Z,100765.88
2023-02-16T20:02:18.246Z,100757.28
2023-02-16T20:04:45.453Z,100761.53
2023-02-16T20:07:12.952Z,100758.13
2023-02-16T20:09:40.634Z,100757.28
2023-02-16T20:12:08.299Z,100753.88
2023-02-16T20:14:36.908Z,100754.66
2023-02-16T20:17:04.242Z,100759.72
2023-02-16T20:19:31.769Z,100760.69
2023-02-16T20:21:59.068Z,100764.97
2023-02-16T20:24:26.508Z,100752.09
2023-02-16T20:26:53.972Z,100749.53
2023-02-16T20:29:21.368Z,100756.56
2023-02-16T20:31:55.525Z,100749.72
2023-02-16T20:34:24.730Z,100750.59
2023-02-16T20:36:52.701Z,100751.50
2023-02-16T20:39:20.593Z,100754.97
2023-02-16T20:41:47.784Z,100749.84
2023-02-16T20:44:15.426Z,100749.06
2023-02-16T20:46:43.576Z,100746.50
2023-02-16T20:49:11.048Z,100748.25
2023-02-16T20:51:38.411Z,100755.09
2023-02-16T20:54:06.161Z,100751.69
2023-02-16T20:56:33.448Z,100762.06
2023-02-16T20:59:01.721Z,100765.50
2023-02-16T21:01:33.973Z,100757.00
2023-02-16T21:04:01.684Z,100748.41
2023-02-16T21:06:29.940Z,100754.44
2023-02-16T21:08:57.922Z,100745.00
2023-02-16T21:11:25.970Z,100741.63
2023-02-16T21:13:53.603Z,100747.66
2023-02-16T21:16:20.997Z,100745.00
2023-02-16T21:18:48.418Z,100751.94
2023-02-16T21:21:16.144Z,100745.16
2023-02-16T21:23:45.742Z,100757.97
2023-02-16T21:26:13.083Z,100750.28
2023-02-16T21:28:40.814Z,100748.53
2023-02-16T21:31:13.898Z,100747.66
2023-02-16T21:33:41.516Z,100745.06
2023-02-16T21:36:14.744Z,100751.94
2023-02-16T21:38:42.914Z,100746.81
2023-02-16T21:41:29.350Z,100739.81
2023-02-16T21:44:02.771Z,100743.34
2023-02-16T21:46:38.515Z,100743.34
2023-02-16T21:49:10.015Z,100733.88
2023-02-16T21:51:41.350Z,100746.81
2023-02-16T21:54:12.699Z,100743.41
2023-02-16T21:56:48.418Z,100739.94
2023-02-16T21:59:18.175Z,100741.75
2023-02-16T22:01:48.705Z,100731.44
2023-02-16T22:04:18.954Z,100735.75
2023-02-16T22:06:48.594Z,100737.47
2023-02-16T22:09:19.293Z,100732.28
2023-02-16T22:11:46.955Z,100745.06
2023-02-16T22:14:14.440Z,100734.75
2023-02-16T22:16:44.143Z,100727.84
2023-02-16T22:19:14.761Z,100726.19
2023-02-16T22:21:44.710Z,100717.53
2023-02-16T22:24:16.326Z,100710.66
2023-02-16T22:26:44.087Z,100704.59
2023-02-16T22:29:12.554Z,100702.94
2023-02-16T22:31:45.386Z,100703.81
2023-02-16T22:34:18.626Z,100713.25
2023-02-16T22:36:46.282Z,100699.59
2023-02-16T22:39:15.310Z,100691.91
2023-02-16T22:41:43.045Z,100691.88
2023-02-16T22:44:11.475Z,100696.19
2023-02-16T22:46:39.292Z,100690.22
2023-02-16T22:49:06.736Z,100690.16
2023-02-16T22:51:34.166Z,100690.22
2023-02-16T22:54:02.525Z,100695.34
2023-02-16T22:56:31.202Z,100684.25
2023-02-16T22:59:00.253Z,100684.28
2023-02-16T23:01:29.849Z,100683.44
2023-02-16T23:03:59.622Z,100686.91
2023-02-16T23:06:30.316Z,100674.84
2023-02-16T23:09:06.568Z,100682.69
2023-02-16T23:11:35.505Z,100675.75
2023-02-16T23:14:03.046Z,100680.13
2023-02-16T23:16:30.467Z,100676.72
2023-02-16T23:18:59.825Z,100675.06
2023-02-16T23:21:32.422Z,100670.81
2023-02-16T23:24:00.417Z,100665.69
2023-02-16T23:26:31.474Z,100678.53
2023-02-16T23:29:01.908Z,100668.28
2023-02-16T23:31:33.715Z,100659.69
2023-02-16T23:34:02.525Z,100681.97
2023-02-16T23:36:31.504Z,100683.72
2023-02-16T23:39:03.192Z,100680.19
2023-02-16T23:41:30.791Z,100678.44
2023-02-16T23:44:00.889Z,100676.78
2023-02-16T23:46:28.442Z,100680.19
2023-02-16T23:48:56.054Z,100673.41
2023-02-16T23:51:23.674Z,100678.53
2023-02-16T23:53:51.177Z,100681.13
2023-02-16T23:56:23.854Z,100682.81
2023-02-16T23:58:51.561Z,100671.72
